createdAt,value
2022-10-01T00:02:09.947Z,15.60
2022-10-01T00:05:51.238Z,15.60
2022-10-01T00:08:59.004Z,15.50
2022-10-01T00:11:56.500Z,15.50
2022-10-01T00:15:15.469Z,15.50
2022-10-01T00:21:58.273Z,15.40
2022-10-01T00:24:48.190Z,15.40
2022-10-01T00:27:50.330Z,15.40
2022-10-01T00:31:24.293Z,15.40
2022-10-01T00:35:19.463Z,15.40
2022-10-01T00:38:54.872Z,15.40
2022-10-01T00:42:17.384Z,15.40
2022-10-01T00:49:04.004Z,15.30
2022-10-01T00:52:09.193Z,15.30
2022-10-01T00:55:00.280Z,15.30
2022-10-01T00:58:52.573Z,15.30
2022-10-01T01:02:12.758Z,15.30
2022-10-01T01:05:33.434Z,15.30
2022-10-01T01:08:21.443Z,15.30
2022-10-01T01:15:18.603Z,15.20
2022-10-01T01:18:23.094Z,15.20
2022-10-01T01:22:03.225Z,15.30
2022-10-01T01:25:32.802Z,15.30
2022-10-01T01:32:53.652Z,15.30
2022-10-01T01:44:30.241Z,15.30
2022-10-01T01:47:50.363Z,15.30
2022-10-01T01:58:40.915Z,15.40
2022-10-01T02:01:52.188Z,15.40
2022-10-01T02:04:56.684Z,15.40
2022-10-01T02:08:43.206Z,15.50
2022-10-01T02:15:34.798Z,15.50
2022-10-01T02:19:07.939Z,15.50
2022-10-01T02:22:17.298Z,15.50
2022-10-01T02:25:35.751Z,15.60
2022-10-01T02:28:50.138Z,15.60
2022-10-01T02:35:21.145Z,15.70
2022-10-01T02:38:32.426Z,15.70
2022-10-01T02:41:42.414Z,15.70
2022-10-01T02:44:51.570Z,15.80
2022-10-01T02:52:02.136Z,15.80
2022-10-01T02:55:17.025Z,15.80
2022-10-01T02:58:19.571Z,15.90
2022-10-01T03:02:09.849Z,15.90
2022-10-01T03:05:22.267Z,15.90
2022-10-01T03:08:24.070Z,15.90
2022-10-01T03:11:14.731Z,15.90
2022-10-01T03:14:16.305Z,15.90
2022-10-01T03:17:29.861Z,15.90
2022-10-01T03:20:49.301Z,15.90
2022-10-01T03:23:44.487Z,16.00
2022-10-01T03:26:38.649Z,16.00
2022-10-01T03:30:37.824Z,16.00
2022-10-01T03:34:04.962Z,16.00
2022-10-01T03:37:38.798Z,16.00
2022-10-01T03:40:27.490Z,16.00
2022-10-01T03:43:14.847Z,16.10
2022-10-01T03:46:02.934Z,16.10
2022-10-01T03:48:50.705Z,16.10
2022-10-01T03:51:38.849Z,16.10
2022-10-01T03:54:26.643Z,16.10
2022-10-01T03:57:15.582Z,16.10
2022-10-01T04:00:03.513Z,16.10
2022-10-01T04:02:58.981Z,16.10
2022-10-01T04:05:47.340Z,16.20
2022-10-01T04:08:34.545Z,16.20
2022-10-01T04:11:21.949Z,16.20
2022-10-01T04:14:10.679Z,16.20
2022-10-01T04:16:59.099Z,16.20
2022-10-01T04:19:46.526Z,16.30
2022-10-01T04:22:41.866Z,16.30
2022-10-01T04:25:29.899Z,16.30
2022-10-01T04:28:17.614Z,16.30
2022-10-01T04:31:23.821Z,16.30
2022-10-01T04:34:11.222Z,16.30
2022-10-01T04:36:58.385Z,16.30
2022-10-01T04:39:46.152Z,16.30
2022-10-01T04:42:34.170Z,16.30
2022-10-01T04:45:21.499Z,16.30
2022-10-01T04:48:10.259Z,16.30
2022-10-01T04:50:57.871Z,16.30
2022-10-01T04:53:45.506Z,16.30
2022-10-01T04:56:33.184Z,16.30
2022-10-01T04:59:20.509Z,16.30
2022-10-01T05:02:07.893Z,16.20
2022-10-01T05:04:56.561Z,16.20
2022-10-01T05:07:43.966Z,16.20
2022-10-01T05:10:31.620Z,16.20
2022-10-01T05:13:19.292Z,16.20
2022-10-01T05:16:07.125Z,16.10
2022-10-01T05:18:55.338Z,16.10
2022-10-01T05:21:44.288Z,16.10
2022-10-01T05:24:31.846Z,16.10
2022-10-01T05:27:19.276Z,16.00
2022-10-01T05:30:08.874Z,16.00
2022-10-01T05:32:58.257Z,16.00
2022-10-01T05:35:45.547Z,16.00
2022-10-01T05:38:36.243Z,16.00
2022-10-01T05:41:23.752Z,15.90
2022-10-01T05:44:11.328Z,15.90
2022-10-01T05:46:58.592Z,15.90
2022-10-01T05:49:46.128Z,15.90
2022-10-01T05:52:33.379Z,15.90
2022-10-01T05:55:23.353Z,15.80
2022-10-01T05:58:14.946Z,15.80
2022-10-01T06:01:02.781Z,15.80
2022-10-01T06:03:46.728Z,15.80
2022-10-01T06:06:15.737Z,15.80
2022-10-01T06:08:46.872Z,15.70
2022-10-01T06:11:17.788Z,15.70
2022-10-01T06:13:47.088Z,15.70
2022-10-01T06:16:16.795Z,15.70
2022-10-01T06:18:45.900Z,15.70
2022-10-01T06:21:14.910Z,15.70
2022-10-01T06:23:44.985Z,15.70
2022-10-01T06:26:13.976Z,15.70
2022-10-01T06:28:44.404Z,15.70
2022-10-01T06:31:13.414Z,15.70
2022-10-01T06:33:42.540Z,15.70
2022-10-01T06:36:11.616Z,15.70
2022-10-01T06:38:40.681Z,15.70
2022-10-01T06:41:10.713Z,15.70
2022-10-01T06:43:39.976Z,15.70
2022-10-01T06:46:10.575Z,15.70
2022-10-01T06:48:39.696Z,15.70
2022-10-01T06:51:08.931Z,15.70
2022-10-01T06:53:37.909Z,15.70
2022-10-01T06:56:08.594Z,15.70
2022-10-01T06:58:37.665Z,15.70
2022-10-01T07:01:06.735Z,15.70
2022-10-01T07:03:37.202Z,15.70
2022-10-01T07:06:08.651Z,15.70
2022-10-01T07:08:37.728Z,15.70
2022-10-01T07:11:06.738Z,15.70
2022-10-01T07:13:35.775Z,15.70
2022-10-01T07:16:05.354Z,15.70
2022-10-01T07:18:35.997Z,15.70
2022-10-01T07:21:05.390Z,15.70
2022-10-01T07:23:34.537Z,15.70
2022-10-01T07:26:06.061Z,15.70
2022-10-01T07:28:35.607Z,15.70
2022-10-01T07:31:11.462Z,15.70
2022-10-01T07:33:42.581Z,15.70
2022-10-01T07:36:13.380Z,15.70
2022-10-01T07:38:43.587Z,15.70
2022-10-01T07:41:12.596Z,15.70
2022-10-01T07:43:42.378Z,15.70
2022-10-01T07:46:11.597Z,15.60
2022-10-01T07:48:42.348Z,15.60
2022-10-01T07:51:11.361Z,15.60
2022-10-01T07:53:40.400Z,15.60
2022-10-01T07:56:09.379Z,15.60
2022-10-01T07:58:38.488Z,15.60
2022-10-01T08:01:09.643Z,15.70
2022-10-01T08:03:38.687Z,15.70
2022-10-01T08:06:09.552Z,15.60
2022-10-01T08:08:38.533Z,15.60
2022-10-01T08:11:10.134Z,15.60
2022-10-01T08:13:39.136Z,15.70
2022-10-01T08:16:09.720Z,15.70
2022-10-01T08:18:40.621Z,15.60
2022-10-01T08:21:11.429Z,15.60
2022-10-01T08:23:41.493Z,15.70
2022-10-01T08:26:11.686Z,15.70
2022-10-01T08:28:41.036Z,15.70
2022-10-01T08:31:10.169Z,15.70
2022-10-01T08:33:39.953Z,15.70
2022-10-01T08:36:10.573Z,15.70
2022-10-01T08:38:40.311Z,15.70
2022-10-01T08:41:28.880Z,15.70
2022-10-01T08:43:58.943Z,15.70
2022-10-01T08:46:32.759Z,15.70
2022-10-01T08:49:10.120Z,15.70
2022-10-01T08:51:49.605Z,15.60
2022-10-01T08:54:32.843Z,15.60
2022-10-01T08:57:04.799Z,15.60
2022-10-01T08:59:41.045Z,15.60
2022-10-01T09:02:30.100Z,15.60
2022-10-01T09:05:03.243Z,15.70
2022-10-01T09:08:02.049Z,15.70
2022-10-01T09:10:44.548Z,15.70
2022-10-01T09:13:44.008Z,15.70
2022-10-01T09:16:23.440Z,15.70
2022-10-01T09:19:07.903Z,15.80
2022-10-01T09:21:51.297Z,15.70
2022-10-01T09:24:38.390Z,15.70
2022-10-01T09:27:15.653Z,15.70
2022-10-01T09:29:50.631Z,15.70
2022-10-01T09:32:24.388Z,15.70
2022-10-01T09:34:54.794Z,15.70
2022-10-01T09:37:32.483Z,15.70
2022-10-01T09:40:15.831Z,15.70
2022-10-01T09:42:45.079Z,15.70
2022-10-01T09:45:17.043Z,15.70
2022-10-01T09:47:50.425Z,15.70
2022-10-01T09:50:31.259Z,15.70
2022-10-01T09:53:02.427Z,15.70
2022-10-01T09:55:39.761Z,15.70
2022-10-01T09:58:14.151Z,15.70
2022-10-01T10:00:44.911Z,15.70
2022-10-01T10:03:25.433Z,15.70
2022-10-01T10:05:55.049Z,15.70
2022-10-01T10:08:29.875Z,15.70
2022-10-01T10:11:03.150Z,15.70
2022-10-01T10:13:39.362Z,15.80
2022-10-01T10:16:17.058Z,15.80
2022-10-01T10:18:52.351Z,15.80
2022-10-01T10:21:25.443Z,15.80
2022-10-01T10:23:57.593Z,15.80
2022-10-01T10:26:33.257Z,15.80
2022-10-01T10:29:03.674Z,15.80
2022-10-01T10:31:42.136Z,15.80
2022-10-01T10:34:17.205Z,15.80
2022-10-01T10:36:48.045Z,15.90
2022-10-01T10:39:24.924Z,15.90
2022-10-01T10:41:56.690Z,15.90
2022-10-01T10:44:30.306Z,15.90
2022-10-01T10:47:03.459Z,15.90
2022-10-01T10:49:35.876Z,15.90
2022-10-01T10:52:19.738Z,16.00
2022-10-01T10:54:51.205Z,16.00
2022-10-01T10:57:28.111Z,16.00
2022-10-01T11:00:00.428Z,16.00
2022-10-01T11:02:31.518Z,16.00
2022-10-01T11:05:04.809Z,16.10
2022-10-01T11:07:34.401Z,16.00
2022-10-01T11:10:28.574Z,16.10
2022-10-01T11:13:51.302Z,16.10
2022-10-01T11:16:39.120Z,16.10
2022-10-01T11:19:28.345Z,16.20
2022-10-01T11:22:15.685Z,16.10
2022-10-01T11:25:21.378Z,16.20
2022-10-01T11:28:00.075Z,16.20
2022-10-01T11:30:39.563Z,16.20
2022-10-01T11:33:24.425Z,16.20
2022-10-01T11:36:03.017Z,16.20
2022-10-01T11:38:55.476Z,16.20
2022-10-01T11:41:35.620Z,16.20
2022-10-01T11:44:09.228Z,16.20
2022-10-01T11:46:50.253Z,16.30
2022-10-01T11:49:43.277Z,16.30
2022-10-01T11:52:20.664Z,16.30
2022-10-01T11:55:23.738Z,16.30
2022-10-01T11:58:17.753Z,16.30
2022-10-01T12:01:01.508Z,16.40
2022-10-01T12:03:38.672Z,16.40
2022-10-01T12:06:14.849Z,16.40
2022-10-01T12:08:53.962Z,16.40
2022-10-01T12:11:29.516Z,16.50
2022-10-01T12:14:05.757Z,16.50
2022-10-01T12:16:51.993Z,16.50
2022-10-01T12:19:25.422Z,16.50
2022-10-01T12:22:01.675Z,16.60
2022-10-01T12:24:37.001Z,16.60
2022-10-01T12:27:33.413Z,16.60
2022-10-01T12:30:08.879Z,16.60
2022-10-01T12:33:05.163Z,16.60
2022-10-01T12:35:49.463Z,16.60
2022-10-01T12:38:49.745Z,16.70
2022-10-01T12:41:38.272Z,16.70
2022-10-01T12:44:27.191Z,16.70
2022-10-01T12:47:12.885Z,16.70
2022-10-01T12:49:51.586Z,16.70
2022-10-01T12:52:34.442Z,16.80
2022-10-01T12:55:43.121Z,16.70
2022-10-01T12:58:28.032Z,16.80
2022-10-01T13:01:04.229Z,16.90
2022-10-01T13:03:53.678Z,16.90
2022-10-01T13:06:37.673Z,16.80
2022-10-01T13:09:17.746Z,16.90
2022-10-01T13:12:13.120Z,16.90
2022-10-01T13:14:44.504Z,16.90
2022-10-01T13:17:22.322Z,16.90
2022-10-01T13:19:58.960Z,16.90
2022-10-01T13:22:36.258Z,17.00
2022-10-01T13:25:25.842Z,17.00
2022-10-01T13:28:05.080Z,17.00
2022-10-01T13:30:46.473Z,17.00
2022-10-01T13:33:26.295Z,17.00
2022-10-01T13:35:59.124Z,17.10
2022-10-01T13:38:32.366Z,17.10
2022-10-01T13:41:04.629Z,17.10
2022-10-01T13:43:36.733Z,17.20
2022-10-01T13:46:09.241Z,17.10
2022-10-01T13:48:46.641Z,17.20
2022-10-01T13:51:16.857Z,17.20
2022-10-01T13:53:52.548Z,17.30
2022-10-01T13:56:31.119Z,17.20
2022-10-01T13:59:01.748Z,17.30
2022-10-01T14:01:42.159Z,17.30
2022-10-01T14:04:21.295Z,17.30
2022-10-01T14:06:55.141Z,17.30
2022-10-01T14:09:27.987Z,17.40
2022-10-01T14:12:20.964Z,17.40
2022-10-01T14:15:15.114Z,17.40
2022-10-01T14:17:45.947Z,17.50
2022-10-01T14:20:20.065Z,17.50
2022-10-01T14:23:05.911Z,17.50
2022-10-01T14:25:48.219Z,17.60
2022-10-01T14:28:44.160Z,17.60
2022-10-01T14:31:25.081Z,17.70
2022-10-01T14:34:19.999Z,17.70
2022-10-01T14:36:51.027Z,17.70
2022-10-01T14:39:22.930Z,17.80
2022-10-01T14:41:54.253Z,17.80
2022-10-01T14:44:27.391Z,17.80
2022-10-01T14:46:59.952Z,17.80
2022-10-01T14:49:31.610Z,17.80
2022-10-01T14:52:04.983Z,17.80
2022-10-01T14:54:43.455Z,17.80
2022-10-01T14:57:18.790Z,17.80
2022-10-01T14:59:49.521Z,17.90
2022-10-01T15:02:21.975Z,17.90
2022-10-01T15:04:54.563Z,17.90
2022-10-01T15:07:24.673Z,17.90
2022-10-01T15:09:53.815Z,18.00
2022-10-01T15:12:24.845Z,18.00
2022-10-01T15:14:55.700Z,18.00
2022-10-01T15:17:28.747Z,18.00
2022-10-01T15:19:58.639Z,18.00
2022-10-01T15:22:31.125Z,18.00
2022-10-01T15:25:02.251Z,18.00
2022-10-01T15:27:31.732Z,18.00
2022-10-01T15:30:01.226Z,18.10
2022-10-01T15:32:31.918Z,18.10
2022-10-01T15:35:03.309Z,18.10
2022-10-01T15:37:35.529Z,18.10
2022-10-01T15:40:09.450Z,18.20
2022-10-01T15:42:38.610Z,18.10
2022-10-01T15:45:25.938Z,18.20
2022-10-01T15:47:58.047Z,18.20
2022-10-01T15:50:29.466Z,18.20
2022-10-01T15:53:06.487Z,18.20
2022-10-01T15:55:41.096Z,18.20
2022-10-01T15:58:16.305Z,18.20
2022-10-01T16:01:00.939Z,18.30
2022-10-01T16:03:35.141Z,18.20
2022-10-01T16:06:07.893Z,18.30
2022-10-01T16:08:54.632Z,18.20
2022-10-01T16:11:27.725Z,18.30
2022-10-01T16:14:25.600Z,18.30
2022-10-01T16:17:29.004Z,18.30
2022-10-01T16:20:02.445Z,18.30
2022-10-01T16:22:34.402Z,18.30
2022-10-01T16:25:07.477Z,18.30
2022-10-01T16:27:45.692Z,18.30
2022-10-01T16:30:23.548Z,18.30
2022-10-01T16:32:52.549Z,18.30
2022-10-01T16:35:25.696Z,18.30
2022-10-01T16:37:56.853Z,18.30
2022-10-01T16:40:28.749Z,18.30
2022-10-01T16:42:59.449Z,18.30
2022-10-01T16:45:35.564Z,18.40
2022-10-01T16:48:14.283Z,18.30
2022-10-01T16:50:46.747Z,18.30
2022-10-01T16:53:18.276Z,18.30
2022-10-01T16:55:48.378Z,18.40
2022-10-01T16:58:18.300Z,18.30
2022-10-01T17:00:47.622Z,18.30
2022-10-01T17:03:19.054Z,18.30
2022-10-01T17:05:50.040Z,18.30
2022-10-01T17:08:19.073Z,18.30
2022-10-01T17:10:53.265Z,18.40
2022-10-01T17:13:22.301Z,18.30
2022-10-01T17:15:51.736Z,18.30
2022-10-01T17:18:21.827Z,18.40
2022-10-01T17:20:52.266Z,18.40
2022-10-01T17:23:22.469Z,18.40
2022-10-01T17:25:51.693Z,18.40
2022-10-01T17:28:21.858Z,18.40
2022-10-01T17:30:51.092Z,18.30
2022-10-01T17:33:20.925Z,18.40
2022-10-01T17:35:54.658Z,18.40
2022-10-01T17:38:24.304Z,18.30
2022-10-01T17:40:56.738Z,18.30
2022-10-01T17:43:25.934Z,18.30
2022-10-01T17:45:57.856Z,18.30
2022-10-01T17:48:28.241Z,18.30
2022-10-01T17:51:05.502Z,18.30
2022-10-01T17:53:41.376Z,18.30
2022-10-01T17:56:15.608Z,18.30
2022-10-01T17:58:46.303Z,18.20
2022-10-01T18:01:19.754Z,18.20
2022-10-01T18:03:49.353Z,18.20
2022-10-01T18:06:19.682Z,18.30
2022-10-01T18:08:55.658Z,18.30
2022-10-01T18:11:26.855Z,18.30
2022-10-01T18:13:56.008Z,18.30
2022-10-01T18:16:26.386Z,18.30
2022-10-01T18:21:51.068Z,18.30
2022-10-01T18:24:20.372Z,18.40
2022-10-01T18:26:49.387Z,18.30
2022-10-01T18:29:21.559Z,18.40
2022-10-01T18:31:56.033Z,18.30
2022-10-01T18:34:33.475Z,18.40
2022-10-01T18:37:09.205Z,18.40
2022-10-01T18:39:43.145Z,18.40
2022-10-01T18:42:19.795Z,18.40
2022-10-01T18:44:54.354Z,18.40
2022-10-01T18:47:37.221Z,18.40
2022-10-01T18:50:27.597Z,18.40
2022-10-01T18:53:22.619Z,18.40
2022-10-01T18:56:33.696Z,18.40
2022-10-01T18:59:38.977Z,18.40
2022-10-01T19:02:30.241Z,18.40
2022-10-01T19:05:47.078Z,18.40
2022-10-01T19:08:34.717Z,18.40
2022-10-01T19:11:17.689Z,18.40
2022-10-01T19:13:55.606Z,18.40
2022-10-01T19:16:40.689Z,18.40
2022-10-01T19:19:27.178Z,18.40
2022-10-01T19:22:02.174Z,18.40
2022-10-01T19:25:03.879Z,18.40
2022-10-01T19:27:54.556Z,18.40
2022-10-01T19:30:23.713Z,18.40
2022-10-01T19:33:00.348Z,18.40
2022-10-01T19:35:33.926Z,18.40
2022-10-01T19:38:07.715Z,18.40
2022-10-01T19:40:43.312Z,18.40
2022-10-01T19:43:19.041Z,18.50
2022-10-01T19:45:55.556Z,18.50
2022-10-01T19:48:32.496Z,18.40
2022-10-01T19:51:12.562Z,18.40
2022-10-01T19:53:45.879Z,18.50
2022-10-01T19:56:21.941Z,18.50
2022-10-01T19:58:50.915Z,18.50
2022-10-01T20:01:23.234Z,18.50
2022-10-01T20:04:21.242Z,18.50
2022-10-01T20:07:12.863Z,18.50
2022-10-01T20:10:07.254Z,18.50
2022-10-01T20:13:16.209Z,18.50
2022-10-01T20:16:15.208Z,18.50
2022-10-01T20:19:17.005Z,18.50
2022-10-01T20:22:13.869Z,18.50
2022-10-01T20:25:08.858Z,18.60
2022-10-01T20:28:07.632Z,18.50
2022-10-01T20:31:03.080Z,18.60
2022-10-01T20:33:59.916Z,18.60
2022-10-01T20:36:52.976Z,18.50
2022-10-01T20:39:48.002Z,18.60
2022-10-01T20:42:41.533Z,18.50
2022-10-01T20:45:35.371Z,18.60
2022-10-01T20:48:28.738Z,18.60
2022-10-01T20:51:21.041Z,18.60
2022-10-01T20:54:13.047Z,18.60
2022-10-01T20:57:09.814Z,18.60
2022-10-01T21:00:06.787Z,18.60
2022-10-01T21:03:11.071Z,18.60
2022-10-01T21:06:05.118Z,18.60
2022-10-01T21:08:58.862Z,18.60
2022-10-01T21:11:50.693Z,18.60
2022-10-01T21:14:44.380Z,18.60
2022-10-01T21:17:41.775Z,18.60
2022-10-01T21:20:53.646Z,18.60
2022-10-01T21:23:59.637Z,18.50
2022-10-01T21:27:03.089Z,18.70
2022-10-01T21:30:09.641Z,18.60
2022-10-01T21:33:15.058Z,18.60
2022-10-01T21:36:19.333Z,18.60
2022-10-01T21:39:16.440Z,18.60
2022-10-01T21:42:15.869Z,18.60
2022-10-01T21:45:21.935Z,18.60
2022-10-01T21:48:26.016Z,18.60
2022-10-01T21:51:26.328Z,18.70
2022-10-01T21:54:46.021Z,18.70
2022-10-01T21:57:52.630Z,18.70
2022-10-01T22:00:40.053Z,18.70
2022-10-01T22:03:36.206Z,18.70
2022-10-01T22:06:33.332Z,18.70
2022-10-01T22:09:31.863Z,18.70
2022-10-01T22:12:19.460Z,18.70
2022-10-01T22:15:22.139Z,18.70
2022-10-01T22:18:17.551Z,18.70
2022-10-01T22:21:13.096Z,18.70
2022-10-01T22:24:09.877Z,18.70
2022-10-01T22:27:06.953Z,18.70
2022-10-01T22:29:59.895Z,18.70
2022-10-01T22:32:52.505Z,18.70
2022-10-01T22:35:47.075Z,18.70
2022-10-01T22:38:41.964Z,18.70
2022-10-01T22:41:36.406Z,18.70
2022-10-01T22:44:24.848Z,18.70
2022-10-01T22:47:36.747Z,18.70
2022-10-01T22:50:46.463Z,18.70
2022-10-01T22:53:51.913Z,18.70
2022-10-01T22:56:49.799Z,18.70
2022-10-01T22:59:49.122Z,18.70
2022-10-01T23:02:41.068Z,18.70
2022-10-01T23:05:44.949Z,18.70
2022-10-01T23:08:43.437Z,18.70
2022-10-01T23:11:46.728Z,18.70
2022-10-01T23:15:06.909Z,18.70
2022-10-01T23:18:06.918Z,18.70
2022-10-01T23:21:15.601Z,18.70
2022-10-01T23:24:20.115Z,18.80
2022-10-01T23:27:23.379Z,18.70
2022-10-01T23:30:14.580Z,18.80
2022-10-01T23:33:19.191Z,18.80
2022-10-01T23:36:17.044Z,18.80
2022-10-01T23:39:26.175Z,18.80
2022-10-01T23:42:31.755Z,18.80
2022-10-01T23:45:27.307Z,18.80
2022-10-01T23:48:20.433Z,18.80
2022-10-01T23:51:15.455Z,18.80
2022-10-01T23:54:11.985Z,18.80
2022-10-01T23:57:06.075Z,18.80
